sensor_id;sensor_type;location;lat;lon;timestamp;pressure;altitude;pressure_sealevel;temperature;humidity
10470;BME280;5282;47.052;15.458;2023-06-04T00:02:25;97676.38;;;15.78;100.00
10470;BME280;5282;47.052;15.458;2023-06-04T00:04:52;97669.63;;;15.73;100.00
10470;BME280;5282;47.052;15.458;2023-06-04T00:07:19;97666.50;;;15.70;100.00
10470;BME280;5282;47.052;15.458;2023-06-04T00:09:46;97675.44;;;15.70;100.00
10470;BME280;5282;47.052;15.458;2023-06-04T00:12:13;97667.31;;;15.70;100.00
10470;BME280;5282;47.052;15.458;2023-06-04T00:14:41;97679.41;;;15.68;100.00
10470;BME280;5282;47.052;15.458;2023-06-04T00:17:10;97675.22;;;15.65;100.00
10470;BME280;5282;47.052;15.458;2023-06-04T00:19:38;97674.84;;;15.68;100.00
10470;BME280;5282;47.052;15.458;2023-06-04T00:22:06;97672.34;;;15.73;100.00
10470;BME280;5282;47.052;15.458;2023-06-04T00:24:34;97669.78;;;15.65;100.00
10470;BME280;5282;47.052;15.458;2023-06-04T00:27:05;97667.09;;;15.65;100.00
10470;BME280;5282;47.052;15.458;2023-06-04T00:29:32;97668.13;;;15.64;100.00
10470;BME280;5282;47.052;15.458;2023-06-04T00:31:59;97665.66;;;15.69;100.00
10470;BME280;5282;47.052;15.458;2023-06-04T00:34:29;97667.56;;;15.76;100.00
10470;BME280;5282;47.052;15.458;2023-06-04T00:36:57;97655.88;;;15.75;100.00
10470;BME280;5282;47.052;15.458;2023-06-04T00:39:24;97656.72;;;15.76;100.00
10470;BME280;5282;47.052;15.458;2023-06-04T00:41:52;97662.59;;;15.79;100.00
10470;BME280;5282;47.052;15.458;2023-06-04T00:44:19;97659.03;;;15.79;100.00
10470;BME280;5282;47.052;15.458;2023-06-04T00:46:47;97651.69;;;15.72;100.00
10470;BME280;5282;47.052;15.458;2023-06-04T00:49:16;97652.28;;;15.68;100.00
10470;BME280;5282;47.052;15.458;2023-06-04T00:51:45;97655.19;;;15.66;100.00
10470;BME280;5282;47.052;15.458;2023-06-04T00:54:12;97647.06;;;15.66;100.00
10470;BME280;5282;47.052;15.458;2023-06-04T00:56:40;97649.75;;;15.66;100.00
10470;BME280;5282;47.052;15.458;2023-06-04T00:59:10;97646.63;;;15.63;100.00
10470;BME280;5282;47.052;15.458;2023-06-04T01:01:40;97647.44;;;15.63;100.00
10470;BME280;5282;47.052;15.458;2023-06-04T01:04:14;97647.06;;;15.66;100.00
10470;BME280;5282;47.052;15.458;2023-06-04T01:06:49;97644.78;;;15.70;100.00
10470;BME280;5282;47.052;15.458;2023-06-04T01:09:18;97643.03;;;15.62;100.00
10470;BME280;5282;47.052;15.458;2023-06-04T01:11:49;97639.94;;;15.65;100.00
10470;BME280;5282;47.052;15.458;2023-06-04T01:14:16;97639.13;;;15.71;100.00
10470;BME280;5282;47.052;15.458;2023-06-04T01:16:47;97645.41;;;15.72;100.00
10470;BME280;5282;47.052;15.458;2023-06-04T01:19:32;97639.41;;;15.77;100.00
10470;BME280;5282;47.052;15.458;2023-06-04T01:22:10;97637.50;;;15.77;100.00
10470;BME280;5282;47.052;15.458;2023-06-04T01:24:43;97638.75;;;15.74;100.00
10470;BME280;5282;47.052;15.458;2023-06-04T01:27:17;97643.75;;;15.71;100.00
10470;BME280;5282;47.052;15.458;2023-06-04T01:29:45;97641.47;;;15.74;100.00
10470;BME280;5282;47.052;15.458;2023-06-04T01:32:14;97636.25;;;15.73;100.00
10470;BME280;5282;47.052;15.458;2023-06-04T01:34:45;97637.94;;;15.74;100.00
10470;BME280;5282;47.052;15.458;2023-06-04T01:37:14;97633.53;;;15.73;100.00
10470;BME280;5282;47.052;15.458;2023-06-04T01:39:42;97632.50;;;15.74;100.00
10470;BME280;5282;47.052;15.458;2023-06-04T01:42:10;97636.88;;;15.75;100.00
10470;BME280;5282;47.052;15.458;2023-06-04T01:44:37;97633.72;;;15.71;100.00
10470;BME280;5282;47.052;15.458;2023-06-04T01:47:04;97638.31;;;15.71;100.00
10470;BME280;5282;47.052;15.458;2023-06-04T01:49:31;97633.28;;;15.68;100.00
10470;BME280;5282;47.052;15.458;2023-06-04T01:51:58;97635.34;;;15.66;100.00
10470;BME280;5282;47.052;15.458;2023-06-04T01:54:26;97638.09;;;15.72;100.00
10470;BME280;5282;47.052;15.458;2023-06-04T01:56:55;97637.50;;;15.77;100.00
10470;BME280;5282;47.052;15.458;2023-06-04T01:59:22;97633.84;;;15.85;100.00
10470;BME280;5282;47.052;15.458;2023-06-04T02:01:49;97639.25;;;15.85;100.00
10470;BME280;5282;47.052;15.458;2023-06-04T02:04:18;97635.88;;;15.83;100.00
10470;BME280;5282;47.052;15.458;2023-06-04T02:06:47;97634.63;;;15.79;100.00
10470;BME280;5282;47.052;15.458;2023-06-04T02:09:14;97642.16;;;15.83;100.00
10470;BME280;5282;47.052;15.458;2023-06-04T02:11:42;97639.69;;;15.88;100.00
10470;BME280;5282;47.052;15.458;2023-06-04T02:14:09;97634.75;;;15.92;100.00
10470;BME280;5282;47.052;15.458;2023-06-04T02:16:36;97627.38;;;15.86;100.00
10470;BME280;5282;47.052;15.458;2023-06-04T02:19:03;97633.84;;;15.85;100.00
10470;BME280;5282;47.052;15.458;2023-06-04T02:21:30;97630.44;;;15.83;100.00
10470;BME280;5282;47.052;15.458;2023-06-04T02:23:57;97629.84;;;15.81;100.00
10470;BME280;5282;47.052;15.458;2023-06-04T02:26:24;97628.31;;;15.78;100.00
10470;BME280;5282;47.052;15.458;2023-06-04T02:28:55;97621.44;;;15.76;100.00
10470;BME280;5282;47.052;15.458;2023-06-04T02:31:22;97621.00;;;15.72;100.00
10470;BME280;5282;47.052;15.458;2023-06-04T02:33:52;97624.94;;;15.69;100.00
10470;BME280;5282;47.052;15.458;2023-06-04T02:36:19;97620.31;;;15.63;100.00
10470;BME280;5282;47.052;15.458;2023-06-04T02:38:46;97619.84;;;15.60;100.00
10470;BME280;5282;47.052;15.458;2023-06-04T02:41:13;97621.94;;;15.57;100.00
10470;BME280;5282;47.052;15.458;2023-06-04T02:43:41;97617.84;;;15.68;100.00
10470;BME280;5282;47.052;15.458;2023-06-04T02:46:11;97622.03;;;15.71;100.00
10470;BME280;5282;47.052;15.458;2023-06-04T02:48:37;97628.28;;;15.71;100.00
10470;BME280;5282;47.052;15.458;2023-06-04T02:51:05;97624.75;;;15.71;100.00
10470;BME280;5282;47.052;15.458;2023-06-04T02:53:35;97625.38;;;15.73;100.00
10470;BME280;5282;47.052;15.458;2023-06-04T02:56:04;97622.25;;;15.69;100.00
10470;BME280;5282;47.052;15.458;2023-06-04T02:58:31;97628.69;;;15.68;100.00
10470;BME280;5282;47.052;15.458;2023-06-04T03:01:05;97626.38;;;15.65;100.00
10470;BME280;5282;47.052;15.458;2023-06-04T03:03:34;97630.56;;;15.68;100.00
10470;BME280;5282;47.052;15.458;2023-06-04T03:06:00;97623.00;;;15.63;100.00
10470;BME280;5282;47.052;15.458;2023-06-04T03:08:27;97612.81;;;15.65;100.00
10470;BME280;5282;47.052;15.458;2023-06-04T03:10:54;97620.31;;;15.63;100.00
10470;BME280;5282;47.052;15.458;2023-06-04T03:13:21;97618.22;;;15.65;100.00
10470;BME280;5282;47.052;15.458;2023-06-04T03:15:51;97623.41;;;15.60;100.00
10470;BME280;5282;47.052;15.458;2023-06-04T03:18:21;97624.00;;;15.55;100.00
10470;BME280;5282;47.052;15.458;2023-06-04T03:20:49;97625.25;;;15.53;100.00
10470;BME280;5282;47.052;15.458;2023-06-04T03:23:16;97630.28;;;15.56;100.00
10470;BME280;5282;47.052;15.458;2023-06-04T03:25:44;97638.25;;;15.64;100.00
10470;BME280;5282;47.052;15.458;2023-06-04T03:28:12;97635.53;;;15.64;100.00
10470;BME280;5282;47.052;15.458;2023-06-04T03:30:39;97638.38;;;15.78;100.00
10470;BME280;5282;47.052;15.458;2023-06-04T03:33:07;97632.81;;;15.86;100.00
10470;BME280;5282;47.052;15.458;2023-06-04T03:35:35;97637.47;;;15.70;100.00
10470;BME280;5282;47.052;15.458;2023-06-04T03:38:03;97635.94;;;15.61;100.00
10470;BME280;5282;47.052;15.458;2023-06-04T03:40:30;97642.00;;;15.63;100.00
10470;BME280;5282;47.052;15.458;2023-06-04T03:42:57;97642.88;;;15.64;100.00
10470;BME280;5282;47.052;15.458;2023-06-04T03:45:24;97643.31;;;15.67;100.00
10470;BME280;5282;47.052;15.458;2023-06-04T03:47:51;97642.00;;;15.63;100.00
10470;BME280;5282;47.052;15.458;2023-06-04T03:50:18;97651.84;;;15.64;100.00
10470;BME280;5282;47.052;15.458;2023-06-04T03:52:46;97648.56;;;15.76;100.00
10470;BME280;5282;47.052;15.458;2023-06-04T03:55:15;97650.47;;;15.75;100.00
10470;BME280;5282;47.052;15.458;2023-06-04T03:57:42;97650.19;;;15.70;100.00
10470;BME280;5282;47.052;15.458;2023-06-04T04:00:11;97652.09;;;15.69;100.00
10470;BME280;5282;47.052;15.458;2023-06-04T04:02:39;97653.31;;;15.95;100.00
10470;BME280;5282;47.052;15.458;2023-06-04T04:05:07;97663.69;;;15.85;100.00
10470;BME280;5282;47.052;15.458;2023-06-04T04:07:37;97653.00;;;15.83;100.00
10470;BME280;5282;47.052;15.458;2023-06-04T04:10:05;97656.75;;;15.82;100.00
10470;BME280;5282;47.052;15.458;2023-06-04T04:12:34;97656.97;;;15.81;100.00
10470;BME280;5282;47.052;15.458;2023-06-04T04:15:02;97663.03;;;15.83;100.00
10470;BME280;5282;47.052;15.458;2023-06-04T04:17:30;97657.59;;;15.83;100.00
10470;BME280;5282;47.052;15.458;2023-06-04T04:19:58;97667.63;;;15.82;100.00
10470;BME280;5282;47.052;15.458;2023-06-04T04:22:26;97664.69;;;15.84;100.00
10470;BME280;5282;47.052;15.458;2023-06-04T04:24:53;97662.19;;;15.82;100.00
10470;BME280;5282;47.052;15.458;2023-06-04T04:27:22;97660.81;;;15.86;100.00
10470;BME280;5282;47.052;15.458;2023-06-04T04:29:51;97666.47;;;15.92;100.00
10470;BME280;5282;47.052;15.458;2023-06-04T04:32:22;97661.06;;;15.98;100.00
10470;BME280;5282;47.052;15.458;2023-06-04T04:34:51;97664.38;;;15.94;100.00
10470;BME280;5282;47.052;15.458;2023-06-04T04:37:20;97667.94;;;15.94;100.00
10470;BME280;5282;47.052;15.458;2023-06-04T04:39:48;97664.81;;;15.97;100.00
10470;BME280;5282;47.052;15.458;2023-06-04T04:42:17;97669.66;;;16.02;100.00
10470;BME280;5282;47.052;15.458;2023-06-04T04:44:45;97678.44;;;16.04;100.00
10470;BME280;5282;47.052;15.458;2023-06-04T04:47:16;97669.31;;;16.12;100.00
10470;BME280;5282;47.052;15.458;2023-06-04T04:49:43;97672.66;;;16.14;100.00
10470;BME280;5282;47.052;15.458;2023-06-04T04:52:10;97672.03;;;16.12;100.00
10470;BME280;5282;47.052;15.458;2023-06-04T04:54:37;97679.78;;;16.15;100.00
10470;BME280;5282;47.052;15.458;2023-06-04T04:57:05;97682.25;;;16.10;100.00
10470;BME280;5282;47.052;15.458;2023-06-04T04:59:33;97676.22;;;16.14;100.00
10470;BME280;5282;47.052;15.458;2023-06-04T05:02:00;97673.94;;;16.18;100.00
10470;BME280;5282;47.052;15.458;2023-06-04T05:04:29;97682.53;;;16.22;100.00
10470;BME280;5282;47.052;15.458;2023-06-04T05:06:56;97677.53;;;16.25;100.00
10470;BME280;5282;47.052;15.458;2023-06-04T05:09:22;97681.28;;;16.24;100.00
10470;BME280;5282;47.052;15.458;2023-06-04T05:11:49;97675.91;;;16.31;100.00
10470;BME280;5282;47.052;15.458;2023-06-04T05:14:16;97673.09;;;16.59;100.00
10470;BME280;5282;47.052;15.458;2023-06-04T05:16:43;97682.97;;;16.67;100.00
10470;BME280;5282;47.052;15.458;2023-06-04T05:19:10;97676.94;;;16.78;100.00
10470;BME280;5282;47.052;15.458;2023-06-04T05:21:39;97687.78;;;16.72;100.00
10470;BME280;5282;47.052;15.458;2023-06-04T05:24:06;97680.91;;;16.83;100.00
10470;BME280;5282;47.052;15.458;2023-06-04T05:26:33;97682.13;;;16.73;100.00
10470;BME280;5282;47.052;15.458;2023-06-04T05:28:59;97680.00;;;16.62;100.00
10470;BME280;5282;47.052;15.458;2023-06-04T05:31:27;97684.81;;;16.66;100.00
10470;BME280;5282;47.052;15.458;2023-06-04T05:33:53;97689.03;;;16.76;100.00
10470;BME280;5282;47.052;15.458;2023-06-04T05:36:20;97686.75;;;16.73;100.00
10470;BME280;5282;47.052;15.458;2023-06-04T05:38:48;97688.81;;;16.71;100.00
10470;BME280;5282;47.052;15.458;2023-06-04T05:41:22;97689.22;;;16.68;100.00
10470;BME280;5282;47.052;15.458;2023-06-04T05:43:49;97685.94;;;16.86;100.00
10470;BME280;5282;47.052;15.458;2023-06-04T05:46:16;97689.16;;;17.03;100.00
10470;BME280;5282;47.052;15.458;2023-06-04T05:48:43;97692.09;;;17.01;100.00
10470;BME280;5282;47.052;15.458;2023-06-04T05:51:12;97683.72;;;17.03;100.00
10470;BME280;5282;47.052;15.458;2023-06-04T05:53:39;97695.22;;;16.98;100.00
10470;BME280;5282;47.052;15.458;2023-06-04T05:56:07;97699.22;;;17.02;100.00
10470;BME280;5282;47.052;15.458;2023-06-04T05:58:34;97704.22;;;16.99;100.00
10470;BME280;5282;47.052;15.458;2023-06-04T06:01:01;97700.28;;;17.08;100.00
10470;BME280;5282;47.052;15.458;2023-06-04T06:03:28;97703.81;;;17.08;100.00
10470;BME280;5282;47.052;15.458;2023-06-04T06:05:56;97704.88;;;17.14;100.00
10470;BME280;5282;47.052;15.458;2023-06-04T06:08:27;97703.44;;;17.11;100.00
10470;BME280;5282;47.052;15.458;2023-06-04T06:10:54;97718.09;;;17.17;100.00
10470;BME280;5282;47.052;15.458;2023-06-04T06:13:23;97706.75;;;17.07;100.00
10470;BME280;5282;47.052;15.458;2023-06-04T06:15:49;97710.53;;;17.26;100.00
10470;BME280;5282;47.052;15.458;2023-06-04T06:18:18;97717.91;;;17.32;100.00
10470;BME280;5282;47.052;15.458;2023-06-04T06:20:45;97705.56;;;17.30;100.00
10470;BME280;5282;47.052;15.458;2023-06-04T06:23:12;97713.94;;;17.48;100.00
10470;BME280;5282;47.052;15.458;2023-06-04T06:25:39;97704.97;;;17.48;100.00
10470;BME280;5282;47.052;15.458;2023-06-04T06:28:09;97715.41;;;17.57;100.00
10470;BME280;5282;47.052;15.458;2023-06-04T06:30:37;97722.31;;;17.60;100.00
10470;BME280;5282;47.052;15.458;2023-06-04T06:33:04;97713.94;;;17.48;100.00
10470;BME280;5282;47.052;15.458;2023-06-04T06:35:31;97718.97;;;17.45;100.00
10470;BME280;5282;47.052;15.458;2023-06-04T06:38:01;97716.44;;;17.43;100.00
10470;BME280;5282;47.052;15.458;2023-06-04T06:40:27;97726.06;;;17.39;100.00
10470;BME280;5282;47.052;15.458;2023-06-04T06:42:56;97725.84;;;17.34;100.00
10470;BME280;5282;47.052;15.458;2023-06-04T06:45:22;97721.25;;;17.34;100.00
10470;BME280;5282;47.052;15.458;2023-06-04T06:47:51;97719.16;;;17.43;100.00
10470;BME280;5282;47.052;15.458;2023-06-04T06:50:20;97729.84;;;17.45;100.00
10470;BME280;5282;47.052;15.458;2023-06-04T06:52:48;97725.06;;;17.47;100.00
10470;BME280;5282;47.052;15.458;2023-06-04T06:55:14;97728.16;;;17.37;100.00
10470;BME280;5282;47.052;15.458;2023-06-04T06:57:41;97725.25;;;17.52;100.00
10470;BME280;5282;47.052;15.458;2023-06-04T07:00:09;97717.28;;;17.84;100.00
10470;BME280;5282;47.052;15.458;2023-06-04T07:02:39;97723.19;;;18.14;100.00
10470;BME280;5282;47.052;15.458;2023-06-04T07:05:08;97721.69;;;18.32;100.00
10470;BME280;5282;47.052;15.458;2023-06-04T07:07:35;97724.41;;;18.39;100.00
10470;BME280;5282;47.052;15.458;2023-06-04T07:10:02;97721.84;;;18.50;100.00
10470;BME280;5282;47.052;15.458;2023-06-04T07:12:29;97720.56;;;18.60;100.00
10470;BME280;5282;47.052;15.458;2023-06-04T07:14:56;97718.47;;;18.62;100.00
10470;BME280;5282;47.052;15.458;2023-06-04T07:17:23;97714.00;;;18.74;100.00
10470;BME280;5282;47.052;15.458;2023-06-04T07:19:50;97712.59;;;18.65;100.00
10470;BME280;5282;47.052;15.458;2023-06-04T07:22:18;97714.72;;;18.49;100.00
10470;BME280;5282;47.052;15.458;2023-06-04T07:24:45;97708.63;;;18.47;100.00
10470;BME280;5282;47.052;15.458;2023-06-04T07:27:12;97708.47;;;18.42;100.00
10470;BME280;5282;47.052;15.458;2023-06-04T07:29:39;97705.34;;;18.25;100.00
10470;BME280;5282;47.052;15.458;2023-06-04T07:32:06;97711.00;;;18.24;100.00
10470;BME280;5282;47.052;15.458;2023-06-04T07:34:32;97708.09;;;18.18;100.00
10470;BME280;5282;47.052;15.458;2023-06-04T07:36:59;97716.91;;;18.07;100.00
10470;BME280;5282;47.052;15.458;2023-06-04T07:39:28;97712.09;;;18.23;100.00
10470;BME280;5282;47.052;15.458;2023-06-04T07:41:55;97704.91;;;18.35;100.00
10470;BME280;5282;47.052;15.458;2023-06-04T07:44:22;97702.69;;;18.71;100.00
10470;BME280;5282;47.052;15.458;2023-06-04T07:46:49;97704.66;;;18.57;100.00
10470;BME280;5282;47.052;15.458;2023-06-04T07:49:16;97707.47;;;18.89;100.00
10470;BME280;5282;47.052;15.458;2023-06-04T07:51:42;97708.31;;;18.83;100.00
10470;BME280;5282;47.052;15.458;2023-06-04T07:54:09;97707.50;;;18.75;100.00
10470;BME280;5282;47.052;15.458;2023-06-04T07:56:38;97704.97;;;18.80;100.00
10470;BME280;5282;47.052;15.458;2023-06-04T07:59:05;97708.03;;;19.04;100.00
10470;BME280;5282;47.052;15.458;2023-06-04T08:01:32;97712.59;;;19.17;100.00
10470;BME280;5282;47.052;15.458;2023-06-04T08:03:59;97706.75;;;19.46;100.00
10470;BME280;5282;47.052;15.458;2023-06-04T08:06:28;97711.94;;;19.54;100.00
10470;BME280;5282;47.052;15.458;2023-06-04T08:08:55;97719.06;;;19.23;100.00
10470;BME280;5282;47.052;15.458;2023-06-04T08:11:22;97722.47;;;19.11;100.00
10470;BME280;5282;47.052;15.458;2023-06-04T08:13:51;97722.41;;;19.25;100.00
10470;BME280;5282;47.052;15.458;2023-06-04T08:16:18;97726.63;;;19.21;100.00
10470;BME280;5282;47.052;15.458;2023-06-04T08:18:45;97733.41;;;19.11;100.00
10470;BME280;5282;47.052;15.458;2023-06-04T08:21:12;97734.81;;;19.21;100.00
10470;BME280;5282;47.052;15.458;2023-06-04T08:23:42;97727.19;;;19.36;100.00
10470;BME280;5282;47.052;15.458;2023-06-04T08:26:09;97735.78;;;19.33;100.00
10470;BME280;5282;47.052;15.458;2023-06-04T08:28:36;97734.94;;;19.33;100.00
10470;BME280;5282;47.052;15.458;2023-06-04T08:31:06;97732.59;;;19.43;100.00
10470;BME280;5282;47.052;15.458;2023-06-04T08:33:32;97729.00;;;19.42;100.00
10470;BME280;5282;47.052;15.458;2023-06-04T08:35:59;97728.66;;;19.64;100.00
10470;BME280;5282;47.052;15.458;2023-06-04T08:38:26;97729.41;;;19.78;100.00
10470;BME280;5282;47.052;15.458;2023-06-04T08:40:57;97735.47;;;20.12;100.00
10470;BME280;5282;47.052;15.458;2023-06-04T08:43:29;97731.13;;;19.72;100.00
10470;BME280;5282;47.052;15.458;2023-06-04T08:45:59;97727.81;;;19.64;100.00
10470;BME280;5282;47.052;15.458;2023-06-04T08:48:30;97730.22;;;19.79;100.00
10470;BME280;5282;47.052;15.458;2023-06-04T08:51:00;97732.72;;;19.87;100.00
10470;BME280;5282;47.052;15.458;2023-06-04T08:53:30;97733.47;;;20.01;100.00
10470;BME280;5282;47.052;15.458;2023-06-04T08:55:57;97731.09;;;20.04;100.00
10470;BME280;5282;47.052;15.458;2023-06-04T08:58:29;97733.59;;;20.06;100.00
10470;BME280;5282;47.052;15.458;2023-06-04T09:00:57;97724.47;;;20.38;100.00
10470;BME280;5282;47.052;15.458;2023-06-04T09:03:25;97730.00;;;20.75;100.00
10470;BME280;5282;47.052;15.458;2023-06-04T09:05:54;97731.13;;;20.86;100.00
10470;BME280;5282;47.052;15.458;2023-06-04T09:08:22;97733.78;;;20.92;100.00
10470;BME280;5282;47.052;15.458;2023-06-04T09:10:53;97725.94;;;20.96;100.00
10470;BME280;5282;47.052;15.458;2023-06-04T09:13:22;97726.34;;;20.81;100.00
10470;BME280;5282;47.052;15.458;2023-06-04T09:15:58;97730.88;;;20.69;100.00
10470;BME280;5282;47.052;15.458;2023-06-04T09:18:26;97726.16;;;20.57;100.00
10470;BME280;5282;47.052;15.458;2023-06-04T09:21:02;97727.56;;;20.85;100.00
10470;BME280;5282;47.052;15.458;2023-06-04T09:23:29;97731.00;;;21.11;100.00
10470;BME280;5282;47.052;15.458;2023-06-04T09:26:06;97726.91;;;21.20;100.00
10470;BME280;5282;47.052;15.458;2023-06-04T09:28:33;97734.25;;;21.20;100.00
10470;BME280;5282;47.052;15.458;2023-06-04T09:31:00;97731.41;;;21.15;100.00
10470;BME280;5282;47.052;15.458;2023-06-04T09:33:28;97729.34;;;21.10;100.00
10470;BME280;5282;47.052;15.458;2023-06-04T09:35:56;97732.41;;;20.83;100.00
10470;BME280;5282;47.052;15.458;2023-06-04T09:38:33;97730.22;;;20.92;100.00
10470;BME280;5282;47.052;15.458;2023-06-04T09:40:59;97733.16;;;20.90;100.00
10470;BME280;5282;47.052;15.458;2023-06-04T09:43:32;97728.16;;;20.87;100.00
10470;BME280;5282;47.052;15.458;2023-06-04T09:46:09;97729.69;;;20.83;100.00
10470;BME280;5282;47.052;15.458;2023-06-04T09:48:36;97730.28;;;20.85;100.00
10470;BME280;5282;47.052;15.458;2023-06-04T09:51:07;97720.09;;;20.74;100.00
10470;BME280;5282;47.052;15.458;2023-06-04T09:53:36;97727.31;;;20.68;100.00
10470;BME280;5282;47.052;15.458;2023-06-04T09:56:04;97727.06;;;21.07;100.00
10470;BME280;5282;47.052;15.458;2023-06-04T09:58:32;97724.97;;;21.51;100.00
10470;BME280;5282;47.052;15.458;2023-06-04T10:01:00;97717.66;;;21.64;100.00
10470;BME280;5282;47.052;15.458;2023-06-04T10:03:30;97724.56;;;21.66;100.00
10470;BME280;5282;47.052;15.458;2023-06-04T10:05:59;97723.13;;;21.64;100.00
10470;BME280;5282;47.052;15.458;2023-06-04T10:08:27;97718.16;;;21.84;100.00
10470;BME280;5282;47.052;15.458;2023-06-04T10:10:59;97714.84;;;22.06;100.00
10470;BME280;5282;47.052;15.458;2023-06-04T10:13:30;97712.72;;;22.08;100.00
10470;BME280;5282;47.052;15.458;2023-06-04T10:15:58;97711.28;;;22.06;100.00
10470;BME280;5282;47.052;15.458;2023-06-04T10:18:27;97703.16;;;21.87;100.00
10470;BME280;5282;47.052;15.458;2023-06-04T10:20:55;97699.44;;;21.81;100.00
10470;BME280;5282;47.052;15.458;2023-06-04T10:23:23;97708.47;;;21.70;100.00
10470;BME280;5282;47.052;15.458;2023-06-04T10:25:52;97715.63;;;21.71;100.00
10470;BME280;5282;47.052;15.458;2023-06-04T10:28:22;97709.22;;;21.77;100.00
10470;BME280;5282;47.052;15.458;2023-06-04T10:30:49;97706.97;;;21.74;100.00
10470;BME280;5282;47.052;15.458;2023-06-04T10:33:18;97704.94;;;22.05;100.00
10470;BME280;5282;47.052;15.458;2023-06-04T10:35:50;97698.97;;;22.68;100.00
10470;BME280;5282;47.052;15.458;2023-06-04T10:38:17;97691.56;;;23.09;97.37
10470;BME280;5282;47.052;15.458;2023-06-04T10:40:44;97702.63;;;23.26;95.11
10470;BME280;5282;47.052;15.458;2023-06-04T10:43:12;97702.75;;;23.48;95.91
10470;BME280;5282;47.052;15.458;2023-06-04T10:45:43;97702.81;;;23.36;90.46
10470;BME280;5282;47.052;15.458;2023-06-04T10:48:11;97702.75;;;23.48;87.48
10470;BME280;5282;47.052;15.458;2023-06-04T10:50:48;97700.50;;;23.28;92.59
10470;BME280;5282;47.052;15.458;2023-06-04T10:53:17;97699.63;;;22.87;90.91
10470;BME280;5282;47.052;15.458;2023-06-04T10:55:45;97697.50;;;22.89;94.82
10470;BME280;5282;47.052;15.458;2023-06-04T10:58:12;97696.53;;;22.95;96.27
10470;BME280;5282;47.052;15.458;2023-06-04T11:00:41;97691.56;;;23.09;91.52
10470;BME280;5282;47.052;15.458;2023-06-04T11:03:11;97701.38;;;23.05;88.12
10470;BME280;5282;47.052;15.458;2023-06-04T11:05:40;97694.88;;;22.94;93.49
10470;BME280;5282;47.052;15.458;2023-06-04T11:08:07;97691.31;;;22.82;90.42
10470;BME280;5282;47.052;15.458;2023-06-04T11:10:36;97691.09;;;22.71;95.81
10470;BME280;5282;47.052;15.458;2023-06-04T11:13:05;97686.97;;;22.57;99.80
10470;BME280;5282;47.052;15.458;2023-06-04T11:15:40;97691.84;;;22.55;96.92
10470;BME280;5282;47.052;15.458;2023-06-04T11:18:15;97683.50;;;22.26;99.78
10470;BME280;5282;47.052;15.458;2023-06-04T11:20:43;97678.28;;;22.12;100.00
10470;BME280;5282;47.052;15.458;2023-06-04T11:23:11;97680.06;;;22.30;100.00
10470;BME280;5282;47.052;15.458;2023-06-04T11:25:39;97681.56;;;22.38;100.00
10470;BME280;5282;47.052;15.458;2023-06-04T11:28:06;97681.84;;;22.48;100.00
10470;BME280;5282;47.052;15.458;2023-06-04T11:30:33;97680.06;;;22.54;100.00
10470;BME280;5282;47.052;15.458;2023-06-04T11:33:01;97685.88;;;22.58;100.00
10470;BME280;5282;47.052;15.458;2023-06-04T11:35:31;97686.34;;;22.55;100.00
10470;BME280;5282;47.052;15.458;2023-06-04T11:37:58;97681.06;;;22.77;100.00
10470;BME280;5282;47.052;15.458;2023-06-04T11:40:25;97683.81;;;22.77;100.00
10470;BME280;5282;47.052;15.458;2023-06-04T11:42:53;97683.31;;;22.80;100.00
10470;BME280;5282;47.052;15.458;2023-06-04T11:45:21;97676.28;;;22.72;100.00
10470;BME280;5282;47.052;15.458;2023-06-04T11:47:50;97684.91;;;22.64;100.00
10470;BME280;5282;47.052;15.458;2023-06-04T11:50:17;97682.16;;;22.40;100.00
10470;BME280;5282;47.052;15.458;2023-06-04T11:52:46;97679.69;;;22.50;100.00
10470;BME280;5282;47.052;15.458;2023-06-04T11:55:14;97684.56;;;22.60;100.00
10470;BME280;5282;47.052;15.458;2023-06-04T11:57:43;97678.38;;;22.53;100.00
10470;BME280;5282;47.052;15.458;2023-06-04T12:00:11;97678.94;;;22.67;100.00
10470;BME280;5282;47.052;15.458;2023-06-04T12:02:50;97684.75;;;22.83;100.00
10470;BME280;5282;47.052;15.458;2023-06-04T12:05:19;97674.72;;;22.88;99.58
10470;BME280;5282;47.052;15.458;2023-06-04T12:07:49;97679.03;;;22.72;100.00
10470;BME280;5282;47.052;15.458;2023-06-04T12:10:18;97687.41;;;22.65;100.00
10470;BME280;5282;47.052;15.458;2023-06-04T12:12:45;97681.09;;;22.65;100.00
10470;BME280;5282;47.052;15.458;2023-06-04T12:15:18;97677.31;;;22.42;100.00
10470;BME280;5282;47.052;15.458;2023-06-04T12:17:49;97676.47;;;22.18;100.00
10470;BME280;5282;47.052;15.458;2023-06-04T12:20:17;97685.41;;;22.37;100.00
10470;BME280;5282;47.052;15.458;2023-06-04T12:22:45;97681.00;;;22.00;100.00
10470;BME280;5282;47.052;15.458;2023-06-04T12:25:23;97679.81;;;21.84;100.00
10470;BME280;5282;47.052;15.458;2023-06-04T12:27:50;97676.22;;;21.72;100.00
10470;BME280;5282;47.052;15.458;2023-06-04T12:30:17;97673.94;;;21.69;100.00
10470;BME280;5282;47.052;15.458;2023-06-04T12:32:46;97673.94;;;21.69;100.00
10470;BME280;5282;47.052;15.458;2023-06-04T12:35:13;97671.09;;;21.64;100.00
10470;BME280;5282;47.052;15.458;2023-06-04T12:37:44;97669.16;;;21.64;100.00
10470;BME280;5282;47.052;15.458;2023-06-04T12:40:11;97671.59;;;21.72;100.00
10470;BME280;5282;47.052;15.458;2023-06-04T12:42:40;97674.53;;;21.71;100.00
10470;BME280;5282;47.052;15.458;2023-06-04T12:45:12;97676.28;;;21.53;100.00
10470;BME280;5282;47.052;15.458;2023-06-04T12:47:39;97678.75;;;21.43;100.00
10470;BME280;5282;47.052;15.458;2023-06-04T12:50:08;97679.78;;;21.30;100.00
10470;BME280;5282;47.052;15.458;2023-06-04T12:52:35;97683.28;;;21.37;100.00
10470;BME280;5282;47.052;15.458;2023-06-04T12:55:02;97690.00;;;21.65;100.00
10470;BME280;5282;47.052;15.458;2023-06-04T12:57:29;97691.13;;;21.46;100.00